createdAt,value
2018-06-11T00:00:40.925Z,65.73
2018-06-11T00:03:09.868Z,65.39
2018-06-11T00:05:41.842Z,65.61
2018-06-11T00:08:13.971Z,66.03
2018-06-11T00:10:48.049Z,65.74
2018-06-11T00:13:16.910Z,65.65
2018-06-11T00:15:45.934Z,65.96
2018-06-11T00:18:14.999Z,66.13
2018-06-11T00:20:44.075Z,65.64
2018-06-11T00:23:17.924Z,65.75
2018-06-11T00:25:48.231Z,66.22
2018-06-11T00:28:23.993Z,66.30
2018-06-11T00:30:52.823Z,66.26
2018-06-11T00:33:21.748Z,66.25
2018-06-11T00:35:50.574Z,66.18
2018-06-11T00:38:19.669Z,66.14
2018-06-11T00:40:52.829Z,66.06
2018-06-11T00:43:25.849Z,66.29
2018-06-11T00:45:56.044Z,65.86
2018-06-11T00:48:25.058Z,66.12
2018-06-11T00:50:53.826Z,66.22
2018-06-11T00:53:22.735Z,66.12
2018-06-11T00:56:07.762Z,65.87
2018-06-11T00:58:41.412Z,65.76
2018-06-11T01:01:13.127Z,66.04
2018-06-11T01:03:49.857Z,65.98
2018-06-11T01:06:18.817Z,65.72
2018-06-11T01:08:47.550Z,66.03
2018-06-11T01:11:16.776Z,65.91
2018-06-11T01:13:48.688Z,65.82
2018-06-11T01:16:20.536Z,65.87
2018-06-11T01:18:52.744Z,65.84
2018-06-11T01:21:21.578Z,66.09
2018-06-11T01:23:50.386Z,66.09
2018-06-11T01:26:19.260Z,66.21
2018-06-11T01:28:48.310Z,66.02
2018-06-11T01:31:18.740Z,66.24
2018-06-11T01:33:49.774Z,66.22
2018-06-11T01:36:20.516Z,66.46
2018-06-11T01:38:49.461Z,66.46
2018-06-11T01:41:18.326Z,66.66
2018-06-11T01:43:47.173Z,66.49
2018-06-11T01:46:16.802Z,66.73
2018-06-11T01:48:48.074Z,66.52
2018-06-11T01:51:21.087Z,66.93
2018-06-11T01:53:52.470Z,66.94
2018-06-11T01:56:21.247Z,67.00
2018-06-11T01:58:50.116Z,67.47
2018-06-11T02:01:18.902Z,67.71
2018-06-11T02:03:48.038Z,68.04
2018-06-11T02:06:20.508Z,67.76
2018-06-11T02:08:53.091Z,67.98
2018-06-11T02:11:25.433Z,68.08
2018-06-11T02:13:54.300Z,68.25
2018-06-11T02:16:23.118Z,68.00
2018-06-11T02:18:52.091Z,68.31
2018-06-11T02:21:21.635Z,68.47
2018-06-11T02:23:52.695Z,68.48
2018-06-11T02:26:24.026Z,68.27
2018-06-11T02:28:55.894Z,68.41
2018-06-11T02:31:24.858Z,68.50
2018-06-11T02:33:53.646Z,68.62
2018-06-11T02:36:22.641Z,68.65
2018-06-11T02:38:52.288Z,68.65
2018-06-11T02:41:22.117Z,68.69
2018-06-11T02:43:56.996Z,68.69
2018-06-11T02:46:28.977Z,68.63
2018-06-11T02:48:57.744Z,68.76
2018-06-11T02:51:26.663Z,68.80
2018-06-11T02:53:55.662Z,68.92
2018-06-11T02:56:27.071Z,69.13
2018-06-11T02:58:57.863Z,69.03
2018-06-11T03:01:28.711Z,69.02
2018-06-11T03:04:01.946Z,69.22
2018-06-11T03:06:30.827Z,68.99
2018-06-11T03:08:59.914Z,69.00
2018-06-11T03:11:28.908Z,69.08
2018-06-11T03:14:00.127Z,69.31
2018-06-11T03:16:32.151Z,69.14
2018-06-11T03:19:04.043Z,69.33
2018-06-11T03:21:32.854Z,69.37
2018-06-11T03:24:01.619Z,69.63
2018-06-11T03:26:30.519Z,69.62
2018-06-11T03:28:59.771Z,69.80
2018-06-11T03:31:32.257Z,69.69
2018-06-11T03:34:04.233Z,69.76
2018-06-11T03:36:36.356Z,69.66
2018-06-11T03:39:08.241Z,69.84
2018-06-11T03:41:37.574Z,69.74
2018-06-11T03:44:06.345Z,69.79
2018-06-11T03:46:35.495Z,70.12
2018-06-11T03:49:08.387Z,69.93
2018-06-11T03:51:38.664Z,70.11
2018-06-11T03:54:11.669Z,69.99
2018-06-11T03:56:40.495Z,69.98
2018-06-11T03:59:23.110Z,70.15
2018-06-11T04:01:52.083Z,70.11
2018-06-11T04:04:27.768Z,70.31
2018-06-11T04:07:00.060Z,70.33
2018-06-11T04:16:58.177Z,70.21
2018-06-11T04:19:27.193Z,70.58
2018-06-11T04:21:57.446Z,70.53
2018-06-11T04:24:28.264Z,70.54
2018-06-11T04:26:58.609Z,70.69
2018-06-11T04:29:32.381Z,70.41
2018-06-11T04:32:01.184Z,70.72
2018-06-11T04:34:30.042Z,70.70
2018-06-11T04:36:59.074Z,70.78
2018-06-11T04:39:30.027Z,70.72
2018-06-11T04:42:00.249Z,70.72
2018-06-11T04:44:32.718Z,70.75
2018-06-11T04:47:01.602Z,70.87
2018-06-11T04:49:30.374Z,70.75
2018-06-11T04:52:00.218Z,70.71
2018-06-11T04:54:29.439Z,70.98
2018-06-11T04:56:58.767Z,71.15
2018-06-11T04:59:28.088Z,71.05
2018-06-11T05:01:58.418Z,71.10
2018-06-11T05:04:27.306Z,71.02
2018-06-11T05:06:56.434Z,71.08
2018-06-11T05:09:25.250Z,71.10
2018-06-11T05:11:54.459Z,71.17
2018-06-11T05:14:24.006Z,71.30
2018-06-11T05:16:53.731Z,71.08
2018-06-11T05:19:25.740Z,71.02
2018-06-11T05:21:54.558Z,71.07
2018-06-11T05:24:23.491Z,71.07
2018-06-11T05:26:52.399Z,71.10
2018-06-11T05:29:21.662Z,71.29
2018-06-11T05:31:52.020Z,71.39
2018-06-11T05:34:22.007Z,71.49
2018-06-11T05:36:51.679Z,71.47
2018-06-11T05:39:20.390Z,71.53
2018-06-11T05:41:49.671Z,71.65
2018-06-11T05:44:18.505Z,71.75
2018-06-11T05:46:49.150Z,72.05
2018-06-11T05:49:24.852Z,72.38
2018-06-11T05:51:58.079Z,72.33
2018-06-11T05:54:29.959Z,72.68
2018-06-11T05:56:58.819Z,72.66
2018-06-11T05:59:27.862Z,72.71
2018-06-11T06:01:57.097Z,72.63
2018-06-11T06:04:29.877Z,72.59
2018-06-11T06:07:06.083Z,72.79
2018-06-11T06:09:40.751Z,72.83
2018-06-11T06:12:09.746Z,72.76
2018-06-11T06:14:38.738Z,72.92
2018-06-11T06:17:07.758Z,73.10
2018-06-11T06:19:36.708Z,73.11
2018-06-11T06:22:12.510Z,73.22
2018-06-11T06:24:46.015Z,73.42
2018-06-11T06:27:21.657Z,73.55
2018-06-11T06:29:50.459Z,73.70
2018-06-11T06:32:19.630Z,73.55
2018-06-11T06:34:48.621Z,73.47
2018-06-11T06:37:18.346Z,73.81
2018-06-11T06:39:51.745Z,73.98
2018-06-11T06:42:24.628Z,73.70
2018-06-11T06:44:57.553Z,73.82
2018-06-11T06:47:26.454Z,73.49
2018-06-11T06:49:55.594Z,73.53
2018-06-11T06:52:24.397Z,73.47
2018-06-11T06:54:54.786Z,73.67
2018-06-11T06:57:26.105Z,73.93
2018-06-11T06:59:56.345Z,74.00
2018-06-11T07:02:26.557Z,73.88
2018-06-11T07:04:56.112Z,73.99
2018-06-11T07:07:24.986Z,74.10
2018-06-11T07:09:53.918Z,74.26
2018-06-11T07:12:23.211Z,74.11
2018-06-11T07:14:53.472Z,74.48
2018-06-11T07:17:25.501Z,74.48
2018-06-11T07:19:54.860Z,74.53
2018-06-11T07:22:23.864Z,74.36
2018-06-11T07:24:52.609Z,74.52
2018-06-11T07:27:21.606Z,74.53
2018-06-11T07:29:50.814Z,74.54
2018-06-11T07:32:20.035Z,74.62
2018-06-11T07:34:49.427Z,74.85
2018-06-11T07:38:11.011Z,74.85
2018-06-11T07:40:39.883Z,75.06
2018-06-11T07:43:08.717Z,75.28
2018-06-11T07:45:37.682Z,75.41
2018-06-11T07:48:06.876Z,75.53
2018-06-11T07:57:29.999Z,75.92
2018-06-11T07:59:58.935Z,75.94
2018-06-11T08:02:28.170Z,75.75
2018-06-11T08:04:57.463Z,75.80
2018-06-11T08:07:26.601Z,75.65
2018-06-11T08:09:56.380Z,75.87
2018-06-11T08:12:25.401Z,75.86
2018-06-11T08:14:54.410Z,75.77
2018-06-11T08:17:23.592Z,75.50
2018-06-11T08:19:52.781Z,75.46
2018-06-11T08:31:30.188Z,71.75
2018-06-11T08:33:59.291Z,70.54
2018-06-11T13:49:57.179Z,37.50
2018-06-11T13:52:26.258Z,37.24
2018-06-11T13:54:55.259Z,37.32
2018-06-11T14:09:37.440Z,37.07
2018-06-11T14:12:07.115Z,35.98
2018-06-11T14:14:36.772Z,35.73
2018-06-11T14:26:21.999Z,38.21
2018-06-11T14:28:52.125Z,38.87
2018-06-11T14:31:23.028Z,38.65
2018-06-11T14:43:22.415Z,40.11
2018-06-11T14:45:53.055Z,40.58
2018-06-11T14:48:22.869Z,40.69
2018-06-11T15:03:04.835Z,40.67
2018-06-11T15:05:34.068Z,40.07
2018-06-11T15:20:21.854Z,37.48
2018-06-11T15:22:52.811Z,37.70
2018-06-11T15:37:34.492Z,39.24
2018-06-11T15:40:03.698Z,39.02
2018-06-11T15:42:38.284Z,38.36
2018-06-11T16:18:42.360Z,34.83
2018-06-11T16:21:12.461Z,35.33
2018-06-11T16:23:45.325Z,34.56
2018-06-11T16:26:24.666Z,34.97
2018-06-11T16:29:15.599Z,35.17
2018-06-11T16:31:45.680Z,34.98
2018-06-11T16:34:14.763Z,35.00
2018-06-11T16:36:44.104Z,34.94
2018-06-11T16:45:21.134Z,34.36
2018-06-11T16:48:04.077Z,33.87
2018-06-11T16:53:37.472Z,35.02
2018-06-11T16:56:24.142Z,34.36
2018-06-11T16:59:49.589Z,34.26
2018-06-11T17:05:09.884Z,34.38
2018-06-11T17:07:41.338Z,33.47
2018-06-11T17:10:16.182Z,33.81
2018-06-11T17:12:48.087Z,33.81
2018-06-11T17:18:25.943Z,33.49
2018-06-11T17:24:05.294Z,34.15
2018-06-11T17:29:52.822Z,34.71
2018-06-11T17:35:17.984Z,33.96
2018-06-11T17:37:52.980Z,34.76
2018-06-11T17:43:29.971Z,34.42
2018-06-11T17:46:21.561Z,34.93
2018-06-11T17:49:00.652Z,35.02
2018-06-11T17:54:24.673Z,35.05
2018-06-11T17:57:01.948Z,34.98
2018-06-11T17:59:33.298Z,34.52
2018-06-11T18:02:02.189Z,34.54
2018-06-11T18:04:31.107Z,34.89
2018-06-11T18:07:00.291Z,34.62
2018-06-11T18:09:32.608Z,35.36
2018-06-11T18:12:08.486Z,34.68
2018-06-11T18:14:45.106Z,34.34
2018-06-11T18:17:20.210Z,34.67
2018-06-11T18:19:57.395Z,34.70
2018-06-11T18:22:29.929Z,35.30
2018-06-11T18:25:01.351Z,34.75
2018-06-11T18:27:36.450Z,34.90
2018-06-11T18:30:09.644Z,34.99
2018-06-11T18:32:44.245Z,34.66
2018-06-11T18:35:17.352Z,34.74
2018-06-11T18:37:48.741Z,35.51
2018-06-11T18:40:21.712Z,34.87
2018-06-11T18:42:53.872Z,35.43
2018-06-11T18:45:22.812Z,35.95
2018-06-11T18:47:51.629Z,36.05
2018-06-11T18:50:20.595Z,36.69
2018-06-11T18:52:50.657Z,37.06
2018-06-11T18:55:20.542Z,37.71
2018-06-11T18:57:53.556Z,37.92
2018-06-11T19:00:24.687Z,38.68
2018-06-11T19:02:54.945Z,39.30
2018-06-11T19:05:26.363Z,39.88
2018-06-11T19:08:01.111Z,39.94
2018-06-11T19:10:50.479Z,40.37
2018-06-11T19:15:59.041Z,41.19
2018-06-11T19:18:28.423Z,41.35
2018-06-11T19:20:57.464Z,42.24
2018-06-11T19:23:32.590Z,42.09
2018-06-11T19:34:56.869Z,43.08
2018-06-11T19:43:58.351Z,44.11
2018-06-11T19:46:27.718Z,43.68
2018-06-11T19:48:56.936Z,43.85
2018-06-11T19:51:29.831Z,44.25
2018-06-11T20:03:22.157Z,44.39
2018-06-11T20:06:04.272Z,44.62
2018-06-11T20:08:45.354Z,44.61
2018-06-11T20:11:22.294Z,45.30
2018-06-11T20:22:09.696Z,45.47
2018-06-11T20:24:38.502Z,45.71
2018-06-11T20:27:07.497Z,45.79
2018-06-11T20:29:39.264Z,45.56
2018-06-11T20:32:21.373Z,46.17
2018-06-11T20:43:32.785Z,46.91
2018-06-11T20:46:05.977Z,47.00
2018-06-11T20:48:50.083Z,47.01
2018-06-11T20:51:25.249Z,46.73
2018-06-11T20:54:09.471Z,46.73
2018-06-11T20:56:53.592Z,47.31
2018-06-11T21:02:21.918Z,47.53
2018-06-11T21:04:53.655Z,47.59
2018-06-11T21:07:26.490Z,47.74
2018-06-11T21:09:55.391Z,47.40
2018-06-11T21:12:24.251Z,47.30
2018-06-11T21:14:53.307Z,47.41
2018-06-11T21:17:23.516Z,48.00
2018-06-11T21:38:53.879Z,48.43
2018-06-11T21:41:22.869Z,48.52
2018-06-11T21:43:51.998Z,48.18
2018-06-11T21:46:21.157Z,48.17
2018-06-11T21:48:50.379Z,48.18
2018-06-11T21:55:00.604Z,49.06
2018-06-11T22:00:53.035Z,49.06
2018-06-11T22:03:32.517Z,49.17
2018-06-11T22:06:13.341Z,49.45
2018-06-11T22:08:50.424Z,49.50
2018-06-11T22:14:07.476Z,49.71
2018-06-11T22:16:40.628Z,49.83
2018-06-11T22:19:13.876Z,49.93
2018-06-11T22:21:45.652Z,49.56
2018-06-11T22:24:18.480Z,50.17
2018-06-11T22:26:47.380Z,50.45
2018-06-11T22:29:16.404Z,50.14
2018-06-11T22:31:45.378Z,50.82
2018-06-11T22:34:14.467Z,50.70
2018-06-11T22:36:49.814Z,50.99
2018-06-11T22:42:17.160Z,51.05
2018-06-11T22:56:57.470Z,52.62
2018-06-11T22:59:37.969Z,52.74
2018-06-11T23:02:17.773Z,52.71
2018-06-11T23:04:56.339Z,52.98
2018-06-11T23:10:24.768Z,53.24
2018-06-11T23:13:12.796Z,53.45
2018-06-11T23:15:54.566Z,53.60
2018-06-11T23:18:41.114Z,53.60
2018-06-11T23:21:22.156Z,53.88
2018-06-11T23:24:05.758Z,54.11
2018-06-11T23:29:36.678Z,54.44
2018-06-11T23:35:16.457Z,55.04
2018-06-11T23:37:49.896Z,55.07
2018-06-11T23:51:34.547Z,56.14
2018-06-11T23:54:03.451Z,56.34
2018-06-11T23:56:32.262Z,56.42
2018-06-11T23:59:05.867Z,56.74
